createdAt,value
2023-04-04T00:00:22.254Z,100626.72
2023-04-04T00:02:49.615Z,100632.13
2023-04-04T00:05:17.092Z,100620.78
2023-04-04T00:07:47.234Z,100628.63
2023-04-04T00:10:13.927Z,100623.53
2023-04-04T00:12:40.707Z,100625.47
2023-04-04T00:15:10.027Z,100639.00
2023-04-04T00:17:36.713Z,100632.09
2023-04-04T00:20:04.532Z,100642.19
2023-04-04T00:22:31.558Z,100634.53
2023-04-04T00:24:59.133Z,100644.56
2023-04-04T00:27:26.240Z,100652.91
2023-04-04T00:29:52.946Z,100650.47
2023-04-04T00:32:19.594Z,100659.38
2023-04-04T00:34:46.458Z,100654.31
2023-04-04T00:37:13.149Z,100643.13
2023-04-04T00:39:39.714Z,100648.94
2023-04-04T00:42:06.702Z,100658.91
2023-04-04T00:44:35.768Z,100652.06
2023-04-04T00:47:04.309Z,100640.81
2023-04-04T00:49:31.078Z,100644.47
2023-04-04T00:51:58.012Z,100641.81
2023-04-04T00:54:25.165Z,100632.31
2023-04-04T00:56:55.445Z,100634.97
2023-04-04T00:59:27.905Z,100626.34
2023-04-04T01:01:54.961Z,100619.16
2023-04-04T01:04:22.042Z,100618.94
2023-04-04T01:06:49.854Z,100612.75
2023-04-04T01:09:16.628Z,100600.53
2023-04-04T01:11:44.044Z,100605.97
2023-04-04T01:14:10.897Z,100602.31
2023-04-04T01:16:37.833Z,100596.19
2023-04-04T01:19:08.953Z,100593.59
2023-04-04T01:21:36.318Z,100585.41
2023-04-04T01:24:03.880Z,100581.03
2023-04-04T01:26:31.405Z,100580.31
2023-04-04T01:28:58.984Z,100577.59
2023-04-04T01:31:41.827Z,100564.34
2023-04-04T01:34:23.574Z,100565.75
2023-04-04T01:36:59.714Z,100560.53
2023-04-04T01:39:39.696Z,100556.16
2023-04-04T01:42:08.098Z,100556.16
2023-04-04T01:44:34.846Z,100549.97
2023-04-04T01:47:03.513Z,100538.31
2023-04-04T01:49:30.095Z,100547.97
2023-04-04T01:51:57.207Z,100532.22
2023-04-04T01:54:24.133Z,100535.66
2023-04-04T01:56:51.730Z,100525.81
2023-04-04T01:59:18.339Z,100525.09
2023-04-04T02:01:45.283Z,100521.53
2023-04-04T02:04:15.274Z,100518.88
2023-04-04T02:06:42.331Z,100515.44
2023-04-04T02:09:08.901Z,100516.50
2023-04-04T02:11:35.557Z,100501.53
2023-04-04T02:14:02.332Z,100508.72
2023-04-04T02:16:29.008Z,100496.53
2023-04-04T02:18:55.764Z,100503.66
2023-04-04T02:21:22.670Z,100494.69
2023-04-04T02:23:49.264Z,100496.47
2023-04-04T02:26:16.853Z,100495.53
2023-04-04T02:28:43.434Z,100491.16
2023-04-04T02:31:10.087Z,100491.03
2023-04-04T02:33:36.719Z,100486.56
2023-04-04T02:36:03.455Z,100489.38
2023-04-04T02:38:30.084Z,100492.94
2023-04-04T02:40:56.635Z,100484.97
2023-04-04T02:43:23.214Z,100488.63
2023-04-04T02:45:49.868Z,100494.09
2023-04-04T02:48:16.459Z,100492.47
2023-04-04T02:50:43.478Z,100494.25
2023-04-04T02:53:10.323Z,100496.88
2023-04-04T02:55:36.889Z,100510.09
2023-04-04T02:58:03.506Z,100497.84
2023-04-04T03:00:30.067Z,100501.59
2023-04-04T03:02:57.758Z,100503.28
2023-04-04T03:05:25.413Z,100508.50
2023-04-04T03:07:56.337Z,100519.41
2023-04-04T03:10:29.869Z,100520.50
2023-04-04T03:12:57.137Z,100521.44
2023-04-04T03:15:25.918Z,100517.22
2023-04-04T03:17:53.102Z,100520.63
2023-04-04T03:20:19.820Z,100518.13
2023-04-04T03:22:46.881Z,100510.25
2023-04-04T03:25:13.441Z,100518.28
2023-04-04T03:27:39.983Z,100510.31
2023-04-04T03:30:09.831Z,100514.91
2023-04-04T03:32:37.997Z,100524.03
2023-04-04T03:35:05.533Z,100521.50
2023-04-04T03:37:32.063Z,100531.31
2023-04-04T03:39:58.985Z,100528.72
2023-04-04T03:42:26.860Z,100536.91
2023-04-04T03:44:53.759Z,100534.25
2023-04-04T03:47:21.651Z,100535.09
2023-04-04T03:49:48.277Z,100532.66
2023-04-04T03:52:14.783Z,100541.72
2023-04-04T03:54:41.806Z,100537.59
2023-04-04T03:57:08.404Z,100535.06
2023-04-04T03:59:34.940Z,100527.06
2023-04-04T04:02:01.602Z,100525.41
2023-04-04T04:04:28.238Z,100526.28
2023-04-04T04:06:54.877Z,100528.25
2023-04-04T04:09:21.464Z,100524.63
2023-04-04T04:11:48.270Z,100517.66
2023-04-04T04:14:14.887Z,100508.78
2023-04-04T04:16:41.617Z,100520.38
2023-04-04T04:19:08.237Z,100516.06
2023-04-04T04:21:34.829Z,100509.78
2023-04-04T04:24:01.452Z,100516.78
2023-04-04T04:26:28.035Z,100514.91
2023-04-04T04:28:54.676Z,100506.78
2023-04-04T04:31:21.662Z,100508.44
2023-04-04T04:33:48.793Z,100506.44
2023-04-04T04:36:15.575Z,100504.63
2023-04-04T04:38:42.204Z,100502.66
2023-04-04T04:41:08.786Z,100503.44
2023-04-04T04:43:37.023Z,100503.34
2023-04-04T04:46:03.595Z,100505.09
2023-04-04T04:48:30.132Z,100510.41
2023-04-04T04:51:15.309Z,100505.81
2023-04-04T04:53:42.048Z,100509.19
2023-04-04T04:56:08.667Z,100504.59
2023-04-04T04:58:35.408Z,100507.97
2023-04-04T05:01:02.130Z,100505.09
2023-04-04T05:03:28.824Z,100498.72
2023-04-04T05:05:55.507Z,100497.72
2023-04-04T05:08:22.512Z,100487.03
2023-04-04T05:10:50.721Z,100497.34
2023-04-04T05:13:17.336Z,100494.47
2023-04-04T05:15:43.856Z,100492.53
2023-04-04T05:18:10.616Z,100496.75
2023-04-04T05:20:37.570Z,100499.19
2023-04-04T05:23:04.542Z,100499.88
2023-04-04T05:25:31.131Z,100498.03
2023-04-04T05:27:58.670Z,100500.47
2023-04-04T05:30:25.335Z,100509.13
2023-04-04T05:32:52.714Z,100508.28
2023-04-04T05:35:19.436Z,100518.88
2023-04-04T05:37:45.982Z,100519.72
2023-04-04T05:40:12.803Z,100514.28
2023-04-04T05:42:39.368Z,100517.59
2023-04-04T05:45:06.566Z,100520.00
2023-04-04T05:47:33.174Z,100520.72
2023-04-04T05:49:59.775Z,100517.81
2023-04-04T05:52:26.940Z,100521.88
2023-04-04T05:54:53.539Z,100521.44
2023-04-04T05:57:20.112Z,100522.13
2023-04-04T05:59:46.693Z,100527.19
2023-04-04T06:02:13.469Z,100525.97
2023-04-04T06:04:41.076Z,100525.56
2023-04-04T06:07:07.789Z,100519.78
2023-04-04T06:09:36.212Z,100519.22
2023-04-04T06:12:06.038Z,100514.53
2023-04-04T06:14:32.684Z,100517.50
2023-04-04T06:16:59.392Z,100524.03
2023-04-04T06:19:26.096Z,100514.63
2023-04-04T06:21:52.672Z,100525.72
2023-04-04T06:24:19.518Z,100525.03
2023-04-04T06:26:46.483Z,100523.44
2023-04-04T06:29:13.295Z,100521.81
2023-04-04T06:31:39.915Z,100497.47
2023-04-04T06:34:06.496Z,100483.81
2023-04-04T06:36:33.126Z,100477.19
2023-04-04T06:38:59.675Z,100473.91
2023-04-04T06:41:26.341Z,100477.25
2023-04-04T06:43:53.101Z,100476.03
2023-04-04T06:46:19.720Z,100471.47
2023-04-04T06:48:46.295Z,100460.66
2023-04-04T06:51:12.917Z,100464.16
2023-04-04T06:53:39.669Z,100471.03
2023-04-04T06:56:06.608Z,100472.75
2023-04-04T06:58:33.216Z,100476.88
2023-04-04T07:01:00.041Z,100482.94
2023-04-04T07:03:27.352Z,100473.66
2023-04-04T07:05:54.007Z,100475.09
2023-04-04T07:08:21.383Z,100482.66
2023-04-04T07:10:47.976Z,100476.94
2023-04-04T07:13:14.690Z,100485.50
2023-04-04T07:15:41.366Z,100489.59
2023-04-04T07:18:09.185Z,100489.59
2023-04-04T07:20:35.796Z,100500.06
2023-04-04T07:23:02.508Z,100493.63
2023-04-04T07:25:29.062Z,100491.44
2023-04-04T07:28:06.023Z,100496.31
2023-04-04T07:30:39.026Z,100485.16
2023-04-04T07:33:06.048Z,100489.94
2023-04-04T07:35:34.866Z,100495.38
2023-04-04T07:38:01.492Z,100496.97
2023-04-04T07:40:28.216Z,100486.84
2023-04-04T07:42:54.879Z,100495.84
2023-04-04T07:45:24.752Z,100484.13
2023-04-04T07:47:51.623Z,100489.72
2023-04-04T07:50:18.691Z,100485.28
2023-04-04T07:52:51.490Z,100494.59
2023-04-04T07:55:19.593Z,100484.44
2023-04-04T07:57:47.286Z,100492.03
2023-04-04T08:00:14.511Z,100492.81
2023-04-04T08:02:41.255Z,100502.66
2023-04-04T08:05:08.659Z,100491.75
2023-04-04T08:07:35.202Z,100489.72
2023-04-04T08:10:01.873Z,100490.47
2023-04-04T08:12:28.582Z,100483.09
2023-04-04T08:14:56.004Z,100486.53
2023-04-04T08:17:22.909Z,100496.78
2023-04-04T08:19:49.545Z,100503.75
2023-04-04T08:22:16.108Z,100507.59
2023-04-04T08:24:42.860Z,100500.75
2023-04-04T08:27:09.523Z,100496.31
2023-04-04T08:29:54.811Z,100491.94
2023-04-04T08:32:22.181Z,100502.19
2023-04-04T08:34:48.867Z,100502.94
2023-04-04T08:37:15.505Z,100502.81
2023-04-04T08:39:42.201Z,100503.09
2023-04-04T08:42:09.493Z,100492.81
2023-04-04T08:44:39.660Z,100489.81
2023-04-04T08:47:09.640Z,100473.91
2023-04-04T08:49:41.087Z,100478.88
2023-04-04T08:52:11.102Z,100484.78
2023-04-04T08:54:39.941Z,100471.69
2023-04-04T08:57:06.991Z,100472.88
2023-04-04T08:59:33.839Z,100462.16
2023-04-04T09:02:09.742Z,100456.00
2023-04-04T09:04:37.148Z,100464.53
2023-04-04T09:07:05.285Z,100465.16
2023-04-04T09:09:35.199Z,100466.63
2023-04-04T09:12:02.486Z,100454.34
2023-04-04T09:14:34.229Z,100453.75
2023-04-04T09:17:00.965Z,100460.25
2023-04-04T09:19:27.713Z,100456.34
2023-04-04T09:21:54.291Z,100458.78
2023-04-04T09:24:20.870Z,100466.31
2023-04-04T09:26:55.271Z,100467.81
2023-04-04T09:29:22.362Z,100471.09
2023-04-04T09:31:50.472Z,100473.41
2023-04-04T09:34:19.459Z,100462.81
2023-04-04T09:36:46.350Z,100454.31
2023-04-04T09:39:16.656Z,100462.09
2023-04-04T09:41:45.518Z,100465.88
2023-04-04T09:44:15.432Z,100453.56
2023-04-04T09:46:42.430Z,100452.72
2023-04-04T09:49:19.291Z,100444.56
2023-04-04T09:51:49.834Z,100446.50
2023-04-04T09:54:29.449Z,100443.56
2023-04-04T09:56:57.133Z,100443.06
2023-04-04T09:59:24.441Z,100446.59
2023-04-04T10:01:53.589Z,100457.31
2023-04-04T10:04:20.706Z,100459.13
2023-04-04T10:06:47.743Z,100455.41
2023-04-04T10:09:16.204Z,100443.94
2023-04-04T10:11:42.901Z,100438.31
2023-04-04T10:14:09.543Z,100448.41
2023-04-04T10:16:37.768Z,100453.28
2023-04-04T10:19:07.855Z,100438.16
2023-04-04T10:21:35.072Z,100441.81
2023-04-04T10:24:08.918Z,100437.75
2023-04-04T10:26:36.905Z,100429.41
2023-04-04T10:29:05.135Z,100423.75
2023-04-04T10:31:34.160Z,100421.78
2023-04-04T10:34:12.261Z,100421.41
2023-04-04T10:37:05.462Z,100419.75
2023-04-04T10:39:45.216Z,100416.28
2023-04-04T10:42:16.729Z,100422.03
2023-04-04T10:44:45.342Z,100415.44
2023-04-04T10:47:21.835Z,100417.94
2023-04-04T10:49:50.624Z,100423.41
2023-04-04T10:52:22.829Z,100421.63
2023-04-04T10:54:57.344Z,100424.66
2023-04-04T10:57:25.348Z,100412.91
2023-04-04T11:00:09.899Z,100412.06
2023-04-04T11:02:48.761Z,100411.50
2023-04-04T11:05:34.417Z,100403.88
2023-04-04T11:08:07.475Z,100410.50
2023-04-04T11:10:41.353Z,100394.97
2023-04-04T11:13:14.647Z,100385.09
2023-04-04T11:15:53.087Z,100386.34
2023-04-04T11:18:31.607Z,100392.41
2023-04-04T11:21:05.306Z,100394.72
2023-04-04T11:23:50.241Z,100396.53
2023-04-04T11:26:29.130Z,100386.66
2023-04-04T11:29:04.164Z,100378.13
2023-04-04T11:31:45.260Z,100373.16
2023-04-04T11:34:13.779Z,100378.72
2023-04-04T11:36:41.619Z,100371.13
2023-04-04T11:39:28.753Z,100370.44
2023-04-04T11:42:05.685Z,100367.78
2023-04-04T11:44:34.981Z,100370.06
2023-04-04T11:47:09.378Z,100350.13
2023-04-04T11:49:43.214Z,100358.63
2023-04-04T11:52:14.336Z,100358.03
2023-04-04T11:54:42.762Z,100352.50
2023-04-04T11:57:13.981Z,100350.06
2023-04-04T11:59:42.397Z,100342.84
2023-04-04T12:02:09.935Z,100337.81
2023-04-04T12:04:38.264Z,100345.06
2023-04-04T12:07:07.942Z,100339.47
2023-04-04T12:09:34.807Z,100346.59
2023-04-04T12:12:01.537Z,100331.00
2023-04-04T12:14:28.173Z,100321.19
2023-04-04T12:16:57.537Z,100327.47
2023-04-04T12:19:24.786Z,100319.31
2023-04-04T12:21:53.502Z,100321.19
2023-04-04T12:24:21.020Z,100320.16
2023-04-04T12:26:50.101Z,100315.34
2023-04-04T12:29:18.652Z,100297.59
2023-04-04T12:31:47.230Z,100307.16
2023-04-04T12:34:17.819Z,100304.31
2023-04-04T12:36:47.807Z,100305.75
2023-04-04T12:39:16.423Z,100300.03
2023-04-04T12:41:52.086Z,100299.25
2023-04-04T12:44:38.238Z,100297.72
2023-04-04T12:47:07.364Z,100307.44
2023-04-04T12:49:43.016Z,100295.06
2023-04-04T12:52:32.691Z,100292.97
2023-04-04T12:57:52.970Z,100294.50
2023-04-04T13:00:21.562Z,100293.22
2023-04-04T13:02:50.949Z,100300.69
2023-04-04T13:05:20.635Z,100293.72
2023-04-04T13:07:47.391Z,100296.28
2023-04-04T13:10:16.336Z,100293.56
2023-04-04T13:13:00.048Z,100294.88
2023-04-04T13:15:52.497Z,100288.91
2023-04-04T13:18:24.964Z,100279.06
2023-04-04T13:20:53.103Z,100281.44
2023-04-04T13:23:20.921Z,100283.38
2023-04-04T13:25:47.828Z,100290.75
2023-04-04T13:28:14.601Z,100290.44
2023-04-04T13:30:46.667Z,100282.13
2023-04-04T13:33:13.446Z,100272.75
2023-04-04T13:35:42.307Z,100274.00
2023-04-04T13:38:09.028Z,100274.66
2023-04-04T13:40:35.599Z,100274.59
2023-04-04T13:43:02.203Z,100275.25
2023-04-04T13:45:28.801Z,100269.03
2023-04-04T13:47:55.546Z,100272.81
2023-04-04T13:50:23.033Z,100271.75
2023-04-04T13:52:53.484Z,100272.78
2023-04-04T13:55:21.859Z,100260.72
2023-04-04T13:57:48.400Z,100270.56
2023-04-04T14:00:15.837Z,100274.19
2023-04-04T14:02:42.440Z,100271.25
2023-04-04T14:05:09.186Z,100271.75
2023-04-04T14:07:38.280Z,100267.34
2023-04-04T14:10:05.394Z,100275.06
2023-04-04T14:12:32.027Z,100272.81
2023-04-04T14:14:58.582Z,100266.50
2023-04-04T14:17:25.201Z,100275.41
2023-04-04T14:19:51.808Z,100266.31
2023-04-04T14:22:18.481Z,100271.59
2023-04-04T14:24:45.073Z,100275.16
2023-04-04T14:27:12.000Z,100271.28
2023-04-04T14:29:38.536Z,100276.59
2023-04-04T14:32:05.234Z,100272.81
2023-04-04T14:34:31.883Z,100269.91
2023-04-04T14:36:59.569Z,100271.88
2023-04-04T14:39:26.143Z,100273.28
2023-04-04T14:41:52.728Z,100280.88
2023-04-04T14:44:21.215Z,100278.31
2023-04-04T14:46:48.108Z,100287.22
2023-04-04T14:49:14.673Z,100278.59
2023-04-04T14:51:41.436Z,100283.72
2023-04-04T14:54:07.960Z,100283.56
2023-04-04T14:56:34.545Z,100282.03
2023-04-04T14:59:02.065Z,100292.78
2023-04-04T15:01:29.151Z,100282.97
2023-04-04T15:03:56.303Z,100275.03
2023-04-04T15:06:23.293Z,100288.38
2023-04-04T15:08:49.895Z,100287.03
2023-04-04T15:11:16.724Z,100283.72
2023-04-04T15:13:44.107Z,100277.47
2023-04-04T15:16:10.757Z,100282.56
2023-04-04T15:18:40.272Z,100285.56
2023-04-04T15:21:06.862Z,100286.69
2023-04-04T15:23:33.618Z,100289.19
2023-04-04T15:26:00.154Z,100293.13
2023-04-04T15:28:27.274Z,100300.09
2023-04-04T15:30:53.891Z,100304.06
2023-04-04T15:33:20.539Z,100293.59
2023-04-04T15:35:47.111Z,100296.63
2023-04-04T15:38:13.688Z,100299.44
2023-04-04T15:40:40.407Z,100300.88
2023-04-04T15:43:07.312Z,100303.41
2023-04-04T15:45:33.916Z,100309.06
2023-04-04T15:48:00.525Z,100309.34
2023-04-04T15:50:27.155Z,100309.66
2023-04-04T15:52:53.759Z,100309.34
2023-04-04T15:55:22.032Z,100305.13
2023-04-04T15:57:48.865Z,100317.00
2023-04-04T16:00:16.901Z,100315.72
2023-04-04T16:02:44.207Z,100314.78
2023-04-04T16:05:11.081Z,100317.03
2023-04-04T16:07:37.806Z,100331.34
2023-04-04T16:10:04.909Z,100328.78
2023-04-04T16:12:31.710Z,100336.44
2023-04-04T16:14:58.304Z,100344.06
2023-04-04T16:17:26.245Z,100349.94
2023-04-04T16:19:52.981Z,100350.91
2023-04-04T16:22:19.563Z,100349.38
2023-04-04T16:24:46.253Z,100359.88
2023-04-04T16:27:12.822Z,100362.59
2023-04-04T16:29:39.432Z,100360.59
2023-04-04T16:32:07.895Z,100372.72
2023-04-04T16:34:36.191Z,100376.47
2023-04-04T16:37:04.242Z,100377.13
2023-04-04T16:39:30.885Z,100388.41
2023-04-04T16:41:57.848Z,100386.13
2023-04-04T16:44:24.458Z,100396.28
2023-04-04T16:46:51.070Z,100401.63
2023-04-04T16:49:17.729Z,100398.97
2023-04-04T16:51:44.275Z,100410.03
2023-04-04T16:54:11.274Z,100405.25
2023-04-04T16:56:37.869Z,100408.41
2023-04-04T16:59:04.623Z,100414.25
2023-04-04T17:01:31.888Z,100412.03
2023-04-04T17:03:59.273Z,100420.16
2023-04-04T17:06:25.940Z,100422.53
2023-04-04T17:08:52.799Z,100426.94
2023-04-04T17:11:19.348Z,100435.88
2023-04-04T17:13:46.125Z,100445.91
2023-04-04T17:16:12.854Z,100438.06
2023-04-04T17:18:39.500Z,100442.47
2023-04-04T17:21:06.459Z,100435.66
2023-04-04T17:23:33.772Z,100449.41
2023-04-04T17:26:00.397Z,100459.28
2023-04-04T17:28:27.005Z,100458.28
2023-04-04T17:30:53.651Z,100462.06
2023-04-04T17:33:23.125Z,100463.50
2023-04-04T17:35:49.899Z,100469.72
2023-04-04T17:38:16.596Z,100469.41
2023-04-04T17:40:43.176Z,100474.63
2023-04-04T17:43:09.760Z,100478.75
2023-04-04T17:45:36.530Z,100480.31
2023-04-04T17:48:03.150Z,100478.19
2023-04-04T17:50:29.843Z,100489.47
2023-04-04T17:52:56.497Z,100496.69
2023-04-04T17:55:23.136Z,100496.16
2023-04-04T17:57:49.823Z,100492.00
2023-04-04T18:00:16.713Z,100499.75
2023-04-04T18:02:43.416Z,100507.47
2023-04-04T18:05:10.574Z,100512.19
2023-04-04T18:07:37.247Z,100516.91
2023-04-04T18:10:04.105Z,100525.38
2023-04-04T18:12:32.532Z,100521.84
2023-04-04T18:15:01.227Z,100524.88
2023-04-04T18:17:28.433Z,100538.69
2023-04-04T18:19:57.420Z,100533.03
2023-04-04T18:22:24.006Z,100537.09
2023-04-04T18:24:50.737Z,100544.91
2023-04-04T18:27:17.321Z,100537.22
2023-04-04T18:29:44.173Z,100543.75
2023-04-04T18:32:10.762Z,100540.44
2023-04-04T18:34:37.310Z,100548.56
2023-04-04T18:37:03.855Z,100542.38
2023-04-04T18:39:30.691Z,100552.41
2023-04-04T18:41:57.676Z,100561.59
2023-04-04T18:44:24.395Z,100559.69
2023-04-04T18:46:51.039Z,100563.84
2023-04-04T18:49:17.665Z,100570.78
2023-04-04T18:51:44.368Z,100578.97
2023-04-04T18:54:11.069Z,100578.53
2023-04-04T18:56:38.519Z,100585.34
2023-04-04T18:59:05.568Z,100590.97
2023-04-04T19:01:33.110Z,100599.38
2023-04-04T19:04:03.126Z,100604.00
2023-04-04T19:06:31.717Z,100601.06
2023-04-04T19:09:03.882Z,100591.94
2023-04-04T19:11:31.508Z,100606.75
2023-04-04T19:13:58.128Z,100620.88
2023-04-04T19:16:24.802Z,100619.34
2023-04-04T19:18:51.880Z,100618.78
2023-04-04T19:21:18.535Z,100625.28
2023-04-04T19:23:45.738Z,100626.34
2023-04-04T19:26:12.322Z,100633.28
2023-04-04T19:28:39.159Z,100625.66
2023-04-04T19:31:10.824Z,100632.84
2023-04-04T19:33:38.626Z,100627.00
2023-04-04T19:36:11.818Z,100635.47
2023-04-04T19:38:42.612Z,100639.19
2023-04-04T19:41:23.951Z,100636.81
2023-04-04T19:43:50.735Z,100638.16
2023-04-04T19:46:25.609Z,100640.41
2023-04-04T19:48:54.624Z,100632.97
2023-04-04T19:51:21.147Z,100641.44
2023-04-04T19:53:53.214Z,100645.41
2023-04-04T19:56:21.526Z,100643.19
2023-04-04T19:58:53.013Z,100646.22
2023-04-04T20:01:25.335Z,100644.50
2023-04-04T20:03:51.912Z,100648.28
2023-04-04T20:06:27.623Z,100652.44
2023-04-04T20:09:02.403Z,100658.13
2023-04-04T20:11:30.167Z,100657.16
2023-04-04T20:13:58.056Z,100657.44
2023-04-04T20:16:25.356Z,100654.84
2023-04-04T20:18:52.486Z,100657.88
2023-04-04T20:21:23.122Z,100652.91
2023-04-04T20:23:50.119Z,100655.16
2023-04-04T20:26:56.813Z,100658.91
2023-04-04T20:29:26.642Z,100659.34
2023-04-04T20:31:58.722Z,100665.09
2023-04-04T20:34:25.714Z,100660.72
2023-04-04T20:36:52.616Z,100661.75
2023-04-04T20:40:20.750Z,100662.28
2023-04-04T20:42:47.840Z,100663.38
2023-04-04T20:45:26.601Z,100666.72
2023-04-04T20:47:57.094Z,100667.81
2023-04-04T20:50:23.631Z,100668.16
2023-04-04T20:52:58.614Z,100678.31
2023-04-04T20:55:30.665Z,100673.91
2023-04-04T20:58:08.741Z,100681.97
2023-04-04T21:00:40.802Z,100684.78
2023-04-04T21:03:25.983Z,100686.63
2023-04-04T21:05:56.502Z,100692.09
2023-04-04T21:08:24.113Z,100683.41
2023-04-04T21:10:53.095Z,100680.91
2023-04-04T21:13:37.485Z,100679.38
2023-04-04T21:16:09.419Z,100674.19
2023-04-04T21:18:37.704Z,100680.59
2023-04-04T21:21:16.935Z,100682.50
2023-04-04T21:23:49.310Z,100686.88
2023-04-04T21:26:28.705Z,100681.88
2023-04-04T21:28:57.702Z,100680.16
2023-04-04T21:31:27.510Z,100680.50
2023-04-04T21:33:56.190Z,100680.03
2023-04-04T21:36:28.657Z,100690.06
2023-04-04T21:38:57.807Z,100689.25
2023-04-04T21:41:26.813Z,100683.34
2023-04-04T21:43:54.812Z,100680.81
2023-04-04T21:46:26.465Z,100680.88
2023-04-04T21:48:54.255Z,100682.72
2023-04-04T21:51:21.573Z,100677.47
2023-04-04T21:53:49.392Z,100678.53
2023-04-04T21:56:16.998Z,100681.28
2023-04-04T21:58:43.960Z,100683.03
2023-04-04T22:01:17.226Z,100671.59
2023-04-04T22:03:43.818Z,100671.44
2023-04-04T22:06:10.459Z,100679.34
2023-04-04T22:08:37.043Z,100675.25
2023-04-04T22:11:04.093Z,100682.41
2023-04-04T22:13:33.922Z,100679.81
2023-04-04T22:16:02.380Z,100684.25
2023-04-04T22:18:35.338Z,100679.88
2023-04-04T22:21:07.051Z,100688.72
2023-04-04T22:23:35.695Z,100680.19
2023-04-04T22:26:07.022Z,100676.13
2023-04-04T22:28:34.237Z,100682.44
2023-04-04T22:31:01.950Z,100685.19
2023-04-04T22:33:29.860Z,100684.22
2023-04-04T22:35:58.041Z,100687.06
2023-04-04T22:38:28.552Z,100697.81
2023-04-04T22:40:56.839Z,100699.78
2023-04-04T22:43:25.595Z,100693.75
2023-04-04T22:45:53.256Z,100690.31
2023-04-04T22:48:22.957Z,100687.56
2023-04-04T22:50:55.994Z,100694.69
2023-04-04T22:53:26.203Z,100692.09
2023-04-04T22:55:53.842Z,100699.38
2023-04-04T22:58:21.653Z,100692.19
2023-04-04T23:00:48.857Z,100695.78
2023-04-04T23:03:15.891Z,100691.41
2023-04-04T23:05:42.879Z,100690.63
2023-04-04T23:08:09.641Z,100689.91
2023-04-04T23:10:37.006Z,100693.41
2023-04-04T23:13:03.785Z,100694.28
2023-04-04T23:15:32.338Z,100692.66
2023-04-04T23:17:59.078Z,100699.09
2023-04-04T23:20:25.726Z,100692.06
2023-04-04T23:22:52.929Z,100690.41
2023-04-04T23:25:19.665Z,100692.38
2023-04-04T23:27:46.369Z,100688.00
2023-04-04T23:30:13.201Z,100696.03
2023-04-04T23:32:39.851Z,100690.00
2023-04-04T23:35:06.721Z,100693.81
2023-04-04T23:37:33.299Z,100692.38
2023-04-04T23:39:59.838Z,100691.66
2023-04-04T23:42:26.630Z,100687.34
2023-04-04T23:44:53.257Z,100692.66
2023-04-04T23:47:20.929Z,100693.59
2023-04-04T23:49:47.565Z,100690.09
2023-04-04T23:52:14.174Z,100699.13
2023-04-04T23:54:40.810Z,100694.59
2023-04-04T23:57:07.382Z,100698.91
2023-04-04T23:59:34.021Z,100695.31
